createdAt,value
2019-01-15T00:00:18.199Z,5.67
2019-01-15T00:02:49.639Z,10.20
2019-01-15T00:05:17.879Z,9.43
2019-01-15T00:07:46.090Z,12.30
2019-01-15T00:10:14.340Z,12.45
2019-01-15T00:12:43.900Z,8.05
2019-01-15T00:15:12.290Z,12.73
2019-01-15T00:17:40.555Z,7.78
2019-01-15T00:20:08.808Z,8.60
2019-01-15T00:22:37.027Z,7.28
2019-01-15T00:25:05.286Z,8.80
2019-01-15T00:27:33.509Z,11.65
2019-01-15T00:30:03.415Z,11.15
2019-01-15T00:32:31.670Z,11.08
2019-01-15T00:34:59.910Z,7.85
2019-01-15T00:37:28.175Z,7.03
2019-01-15T00:39:56.475Z,6.58
2019-01-15T00:42:25.868Z,7.47
2019-01-15T00:44:54.120Z,9.23
2019-01-15T00:47:22.337Z,9.48
2019-01-15T00:49:50.560Z,6.53
2019-01-15T00:52:18.916Z,11.35
2019-01-15T00:54:47.130Z,7.70
2019-01-15T00:57:15.369Z,10.40
2019-01-15T00:59:43.572Z,8.40
2019-01-15T01:02:11.922Z,7.22
2019-01-15T01:04:40.271Z,5.22
2019-01-15T01:07:08.523Z,10.35
2019-01-15T01:09:36.780Z,11.57
2019-01-15T01:12:08.180Z,14.60
2019-01-15T01:14:36.424Z,9.05
2019-01-15T01:17:06.249Z,10.70
2019-01-15T01:19:34.908Z,13.70
2019-01-15T01:22:03.122Z,10.40
2019-01-15T01:24:31.388Z,11.03
2019-01-15T01:26:59.682Z,13.40
2019-01-15T01:29:27.930Z,11.55
2019-01-15T01:31:56.228Z,7.70
2019-01-15T01:34:24.506Z,9.53
2019-01-15T01:36:52.743Z,12.58
2019-01-15T01:39:20.950Z,10.93
2019-01-15T01:41:49.247Z,10.85
2019-01-15T01:44:17.485Z,8.40
2019-01-15T01:46:45.786Z,12.18
2019-01-15T01:49:13.972Z,8.38
2019-01-15T01:51:42.199Z,9.70
2019-01-15T01:54:10.480Z,8.88
2019-01-15T01:56:38.699Z,6.35
2019-01-15T01:59:09.949Z,8.98
2019-01-15T02:01:38.178Z,8.70
2019-01-15T02:04:06.475Z,7.78
2019-01-15T02:06:34.687Z,7.40
2019-01-15T02:09:04.322Z,9.10
2019-01-15T02:11:32.524Z,10.13
2019-01-15T02:14:00.765Z,10.78
2019-01-15T02:16:28.990Z,9.67
2019-01-15T02:18:57.291Z,7.33
2019-01-15T02:21:25.540Z,6.83
2019-01-15T02:23:53.878Z,8.68
2019-01-15T02:26:25.161Z,8.15
2019-01-15T02:28:53.380Z,5.75
2019-01-15T02:31:21.613Z,5.92
2019-01-15T02:33:49.905Z,9.88
2019-01-15T02:36:18.385Z,7.80
2019-01-15T02:38:46.575Z,9.88
2019-01-15T02:41:14.936Z,7.05
2019-01-15T02:43:43.166Z,11.43
2019-01-15T02:46:12.418Z,6.97
2019-01-15T02:48:40.650Z,10.88
2019-01-15T02:51:08.864Z,8.25
2019-01-15T02:53:37.181Z,10.50
2019-01-15T02:56:05.387Z,7.92
2019-01-15T02:58:33.606Z,9.77
2019-01-15T03:01:01.787Z,13.68
2019-01-15T03:03:30.047Z,8.18
2019-01-15T03:05:58.234Z,8.65
2019-01-15T03:08:28.258Z,11.00
2019-01-15T03:10:56.489Z,9.20
2019-01-15T03:13:24.700Z,7.85
2019-01-15T03:15:52.962Z,8.25
2019-01-15T03:18:21.171Z,10.28
2019-01-15T03:20:49.421Z,5.55
2019-01-15T03:23:17.636Z,3.85
2019-01-15T03:25:45.872Z,6.87
2019-01-15T03:28:15.133Z,9.68
2019-01-15T03:30:43.371Z,6.87
2019-01-15T03:33:11.573Z,6.15
2019-01-15T03:35:39.798Z,8.33
2019-01-15T03:38:08.055Z,5.42
2019-01-15T03:40:36.286Z,8.58
2019-01-15T03:43:04.494Z,7.45
2019-01-15T03:45:32.833Z,6.33
2019-01-15T03:48:01.099Z,5.23
2019-01-15T03:50:29.359Z,6.03
2019-01-15T03:52:57.590Z,7.37
2019-01-15T03:55:25.868Z,9.23
2019-01-15T03:57:54.133Z,5.75
2019-01-15T04:00:25.564Z,5.07
2019-01-15T04:02:54.699Z,8.83
2019-01-15T04:05:22.906Z,7.03
2019-01-15T04:08:03.028Z,8.80
2019-01-15T04:10:31.216Z,5.33
2019-01-15T04:12:59.576Z,6.58
2019-01-15T04:15:27.766Z,5.73
2019-01-15T04:17:56.969Z,7.58
2019-01-15T04:20:25.162Z,7.55
2019-01-15T04:22:53.395Z,7.22
2019-01-15T04:25:21.643Z,8.37
2019-01-15T04:27:50.038Z,5.37
2019-01-15T04:30:19.166Z,5.20
2019-01-15T04:32:48.344Z,3.17
2019-01-15T04:35:19.406Z,6.30
2019-01-15T04:37:47.607Z,8.83
2019-01-15T04:40:16.959Z,9.17
2019-01-15T04:42:45.181Z,7.30
2019-01-15T04:45:14.073Z,5.73
2019-01-15T04:47:42.296Z,4.60
2019-01-15T04:50:10.520Z,5.90
2019-01-15T04:52:40.023Z,8.53
2019-01-15T04:55:08.347Z,5.83
2019-01-15T04:57:36.562Z,5.95
2019-01-15T05:00:05.615Z,6.20
2019-01-15T05:02:35.894Z,6.33
2019-01-15T05:05:04.874Z,4.80
2019-01-15T05:07:33.105Z,5.53
2019-01-15T05:10:01.304Z,5.00
2019-01-15T05:12:30.491Z,4.30
2019-01-15T05:14:58.697Z,5.87
2019-01-15T05:17:26.969Z,6.80
2019-01-15T05:19:55.239Z,7.47
2019-01-15T05:22:23.479Z,5.87
2019-01-15T05:24:51.700Z,5.90
2019-01-15T05:27:19.895Z,6.40
2019-01-15T05:29:48.136Z,6.43
2019-01-15T05:32:16.393Z,4.60
2019-01-15T05:34:44.936Z,3.80
2019-01-15T05:37:13.127Z,6.20
2019-01-15T05:39:41.331Z,2.87
2019-01-15T05:42:09.570Z,7.03
2019-01-15T05:44:37.801Z,5.17
2019-01-15T05:47:06.096Z,4.27
2019-01-15T05:49:34.459Z,4.50
2019-01-15T05:52:02.688Z,4.77
2019-01-15T05:54:30.931Z,4.65
2019-01-15T05:56:59.175Z,3.90
2019-01-15T05:59:27.385Z,4.62
2019-01-15T06:01:55.631Z,4.90
2019-01-15T06:04:23.980Z,4.90
2019-01-15T06:06:52.210Z,6.40
2019-01-15T06:09:20.469Z,4.43
2019-01-15T06:11:48.737Z,2.80
2019-01-15T06:14:16.954Z,5.37
2019-01-15T06:16:45.197Z,5.20
2019-01-15T06:19:13.499Z,2.83
2019-01-15T06:21:41.711Z,3.47
2019-01-15T06:24:09.932Z,4.10
2019-01-15T06:26:39.882Z,6.97
2019-01-15T06:29:08.213Z,6.00
2019-01-15T06:31:36.421Z,3.37
2019-01-15T06:34:04.669Z,2.90
2019-01-15T06:36:35.256Z,5.57
2019-01-15T06:39:05.293Z,4.20
2019-01-15T06:41:33.550Z,4.33
2019-01-15T06:44:01.825Z,2.93
2019-01-15T06:46:30.122Z,5.50
2019-01-15T06:48:58.335Z,3.47
2019-01-15T06:51:26.540Z,4.83
2019-01-15T06:53:54.806Z,5.47
2019-01-15T06:56:23.089Z,2.57
2019-01-15T06:58:51.375Z,7.05
2019-01-15T07:01:19.647Z,4.10
2019-01-15T07:03:47.898Z,5.50
2019-01-15T07:06:16.154Z,5.12
2019-01-15T07:08:44.369Z,6.03
2019-01-15T07:11:12.611Z,3.92
2019-01-15T07:13:40.838Z,4.27
2019-01-15T07:16:09.473Z,4.73
2019-01-15T07:18:37.687Z,6.53
2019-01-15T07:21:06.016Z,8.47
2019-01-15T07:23:34.248Z,6.30
2019-01-15T07:26:02.433Z,4.83
2019-01-15T07:28:30.679Z,4.33
2019-01-15T07:30:59.540Z,7.33
2019-01-15T07:33:28.825Z,8.70
2019-01-15T07:35:57.053Z,4.55
2019-01-15T07:38:25.378Z,4.63
2019-01-15T07:40:53.659Z,4.83
2019-01-15T07:43:22.000Z,6.22
2019-01-15T07:45:50.290Z,5.75
2019-01-15T07:48:18.559Z,4.80
2019-01-15T07:50:46.943Z,7.00
2019-01-15T07:53:15.169Z,4.37
2019-01-15T07:55:43.502Z,4.93
2019-01-15T07:58:11.725Z,3.53
2019-01-15T08:00:40.134Z,5.08
2019-01-15T08:03:08.439Z,4.12
2019-01-15T08:05:36.746Z,6.92
2019-01-15T08:08:05.941Z,5.53
2019-01-15T08:10:34.678Z,6.80
2019-01-15T08:13:02.973Z,5.05
2019-01-15T08:15:31.271Z,6.83
2019-01-15T08:17:59.501Z,6.47
2019-01-15T08:20:27.822Z,5.87
2019-01-15T08:22:56.097Z,5.25
2019-01-15T08:25:24.333Z,4.97
2019-01-15T08:27:52.663Z,6.17
2019-01-15T08:30:24.791Z,5.95
2019-01-15T08:32:52.999Z,6.03
2019-01-15T08:35:21.330Z,5.97
2019-01-15T08:37:49.652Z,6.40
2019-01-15T08:40:18.000Z,6.80
2019-01-15T08:42:46.294Z,7.28
2019-01-15T08:45:14.912Z,6.33
2019-01-15T08:47:55.681Z,5.60
2019-01-15T08:50:24.540Z,5.25
2019-01-15T08:52:52.890Z,7.55
2019-01-15T08:55:21.063Z,9.15
2019-01-15T08:57:49.288Z,8.68
2019-01-15T09:00:17.511Z,7.77
2019-01-15T09:02:45.811Z,6.05
2019-01-15T09:05:14.008Z,9.40
2019-01-15T09:07:43.204Z,8.83
2019-01-15T09:10:13.585Z,7.57
2019-01-15T09:12:41.793Z,8.78
2019-01-15T09:15:10.849Z,10.08
2019-01-15T09:17:39.037Z,8.33
2019-01-15T09:20:08.746Z,7.33
2019-01-15T09:22:37.077Z,6.87
2019-01-15T09:25:05.528Z,4.60
2019-01-15T09:27:33.813Z,6.67
2019-01-15T09:30:02.089Z,5.80
2019-01-15T09:32:30.322Z,6.13
2019-01-15T09:34:58.572Z,6.73
2019-01-15T09:37:26.953Z,8.05
2019-01-15T09:39:55.200Z,6.50
2019-01-15T09:42:23.476Z,6.00
2019-01-15T09:44:51.947Z,7.37
2019-01-15T09:47:20.199Z,9.58
2019-01-15T09:49:48.459Z,12.37
2019-01-15T09:52:20.561Z,6.25
2019-01-15T09:54:46.583Z,9.40
2019-01-15T09:57:14.835Z,10.27
2019-01-15T09:59:43.118Z,8.08
2019-01-15T10:02:11.322Z,8.63
2019-01-15T10:04:39.560Z,6.25
2019-01-15T10:07:07.928Z,7.60
2019-01-15T10:09:36.126Z,8.00
2019-01-15T10:12:07.525Z,7.57
2019-01-15T10:14:41.163Z,10.70
2019-01-15T10:17:05.808Z,7.15
2019-01-15T10:19:34.151Z,10.47
2019-01-15T10:22:03.042Z,8.10
2019-01-15T10:24:31.659Z,7.37
2019-01-15T10:27:00.093Z,7.87
2019-01-15T10:29:28.891Z,8.43
2019-01-15T10:32:28.485Z,5.60
2019-01-15T10:34:57.865Z,7.13
2019-01-15T10:37:26.212Z,5.62
2019-01-15T10:39:54.476Z,7.50
2019-01-15T10:42:22.688Z,6.15
2019-01-15T10:44:50.939Z,9.60
2019-01-15T10:47:19.200Z,8.07
2019-01-15T10:49:47.398Z,7.93
2019-01-15T10:52:15.642Z,7.03
2019-01-15T10:54:43.882Z,9.30
2019-01-15T10:57:12.085Z,6.03
2019-01-15T10:59:40.294Z,7.57
2019-01-15T11:02:08.572Z,9.93
2019-01-15T11:04:36.757Z,5.87
2019-01-15T11:07:05.115Z,7.08
2019-01-15T11:09:33.344Z,6.97
2019-01-15T11:12:01.585Z,7.03
2019-01-15T11:14:29.929Z,7.97
2019-01-15T11:16:58.164Z,8.58
2019-01-15T11:19:26.439Z,6.53
2019-01-15T11:21:54.690Z,6.37
2019-01-15T11:24:22.984Z,6.60
2019-01-15T11:26:51.254Z,4.87
2019-01-15T11:29:19.449Z,6.87
2019-01-15T11:31:47.665Z,5.57
2019-01-15T11:34:15.893Z,5.47
2019-01-15T11:36:44.145Z,5.33
2019-01-15T11:39:12.444Z,3.98
2019-01-15T11:41:40.637Z,2.97
2019-01-15T11:44:09.847Z,4.42
2019-01-15T11:46:38.098Z,3.47
2019-01-15T11:49:06.414Z,3.80
2019-01-15T11:51:34.635Z,3.98
2019-01-15T11:54:02.873Z,6.33
2019-01-15T11:56:31.201Z,2.50
2019-01-15T11:58:59.839Z,4.87
2019-01-15T12:01:51.615Z,3.33
2019-01-15T12:04:38.905Z,3.40
2019-01-15T12:07:25.877Z,3.73
2019-01-15T12:10:16.156Z,3.40
2019-01-15T12:13:18.991Z,4.03
2019-01-15T12:15:59.877Z,3.67
2019-01-15T12:18:49.755Z,2.50
2019-01-15T12:21:30.593Z,3.25
2019-01-15T12:24:21.363Z,2.58
2019-01-15T12:27:03.760Z,3.00
2019-01-15T12:29:50.028Z,2.97
2019-01-15T12:32:46.281Z,2.53
2019-01-15T12:35:36.511Z,3.33
2019-01-15T12:38:36.777Z,4.42
2019-01-15T12:41:23.015Z,3.02
2019-01-15T12:44:28.548Z,2.30
2019-01-15T12:47:15.948Z,2.98
2019-01-15T12:50:03.380Z,4.10
2019-01-15T12:52:55.197Z,2.75
2019-01-15T12:55:48.747Z,3.62
2019-01-15T12:58:32.133Z,2.73
2019-01-15T13:01:18.453Z,1.90
2019-01-15T13:04:07.151Z,1.40
2019-01-15T13:07:03.695Z,2.00
2019-01-15T13:09:56.912Z,2.07
2019-01-15T13:13:02.518Z,2.73
2019-01-15T13:15:48.624Z,2.40
2019-01-15T13:18:34.937Z,2.43
2019-01-15T13:21:14.556Z,2.17
2019-01-15T13:24:06.591Z,2.03
2019-01-15T13:26:52.711Z,2.23
2019-01-15T13:29:38.770Z,2.30
2019-01-15T13:32:29.234Z,3.17
2019-01-15T13:35:08.945Z,2.20
2019-01-15T13:37:56.332Z,2.73
2019-01-15T13:40:44.300Z,2.83
2019-01-15T13:43:37.523Z,3.60
2019-01-15T13:46:16.607Z,1.57
2019-01-15T13:49:13.236Z,1.73
2019-01-15T13:52:09.586Z,1.83
2019-01-15T13:54:55.441Z,2.50
2019-01-15T13:57:41.297Z,3.57
2019-01-15T14:00:30.653Z,3.58
2019-01-15T14:03:12.128Z,3.53
2019-01-15T14:05:56.357Z,2.40
2019-01-15T14:08:38.217Z,1.42
2019-01-15T14:11:24.395Z,1.67
2019-01-15T14:14:12.003Z,3.85
2019-01-15T14:16:50.433Z,2.85
2019-01-15T14:19:31.854Z,3.22
2019-01-15T14:22:15.715Z,3.02
2019-01-15T14:25:01.672Z,3.30
2019-01-15T14:27:55.241Z,3.37
2019-01-15T14:30:45.535Z,3.30
2019-01-15T14:33:31.574Z,2.80
2019-01-15T14:36:21.665Z,4.03
2019-01-15T14:39:21.482Z,2.87
2019-01-15T14:42:11.711Z,1.23
2019-01-15T14:45:08.440Z,2.35
2019-01-15T14:48:08.099Z,2.30
2019-01-15T14:50:55.770Z,2.50
2019-01-15T14:53:45.364Z,2.05
2019-01-15T14:56:41.791Z,3.10
2019-01-15T14:59:27.920Z,1.92
2019-01-15T15:02:16.310Z,4.33
2019-01-15T15:05:02.350Z,2.57
2019-01-15T15:08:08.066Z,2.77
2019-01-15T15:10:55.522Z,3.47
2019-01-15T15:13:33.055Z,3.50
2019-01-15T15:16:20.540Z,2.47
2019-01-15T15:19:06.165Z,3.17
2019-01-15T15:21:59.448Z,2.70
2019-01-15T15:24:53.661Z,2.80
2019-01-15T15:27:33.469Z,3.85
2019-01-15T15:30:20.936Z,2.43
2019-01-15T15:33:13.559Z,1.40
2019-01-15T15:35:59.587Z,1.63
2019-01-15T15:38:42.164Z,1.60
2019-01-15T15:41:37.995Z,0.68
2019-01-15T15:44:31.221Z,2.03
2019-01-15T15:47:34.015Z,2.87
2019-01-15T15:50:14.396Z,1.75
2019-01-15T15:53:02.691Z,1.33
2019-01-15T15:55:51.905Z,1.63
2019-01-15T15:58:38.189Z,2.20
2019-01-15T16:01:15.107Z,1.93
2019-01-15T16:04:08.314Z,1.03
2019-01-15T16:06:54.531Z,2.57
2019-01-15T16:09:40.424Z,2.37
2019-01-15T16:12:36.541Z,1.95
2019-01-15T16:15:23.373Z,2.23
2019-01-15T16:18:16.683Z,1.55
2019-01-15T16:21:12.116Z,1.70
2019-01-15T16:23:53.218Z,2.37
2019-01-15T16:26:35.868Z,1.80
2019-01-15T16:29:13.916Z,2.97
2019-01-15T16:31:57.950Z,3.83
2019-01-15T16:34:39.943Z,2.85
2019-01-15T16:37:25.979Z,1.70
2019-01-15T16:40:20.971Z,1.63
2019-01-15T16:43:04.566Z,3.67
2019-01-15T16:45:58.170Z,3.53
2019-01-15T16:48:38.639Z,1.50
2019-01-15T16:51:17.997Z,2.77
2019-01-15T16:54:00.523Z,4.43
2019-01-15T16:56:46.785Z,2.77
2019-01-15T16:59:31.009Z,4.27
2019-01-15T17:02:09.710Z,4.97
2019-01-15T17:04:58.215Z,4.50
2019-01-15T17:07:49.272Z,6.30
2019-01-15T17:10:37.327Z,6.00
2019-01-15T17:13:20.752Z,4.80
2019-01-15T17:16:15.032Z,7.97
2019-01-15T17:19:01.149Z,8.90
2019-01-15T17:21:47.516Z,9.30
2019-01-15T17:24:33.586Z,8.77
2019-01-15T17:27:21.986Z,7.77
2019-01-15T17:30:04.234Z,6.97
2019-01-15T17:32:43.417Z,5.63
2019-01-15T17:35:24.438Z,4.95
2019-01-15T17:38:02.038Z,6.70
2019-01-15T17:40:41.733Z,5.20
2019-01-15T17:43:26.779Z,4.30
2019-01-15T17:46:12.948Z,5.70
2019-01-15T17:48:58.462Z,8.53
2019-01-15T17:52:04.249Z,6.70
2019-01-15T17:54:56.634Z,8.10
2019-01-15T17:57:44.068Z,6.90
2019-01-15T18:00:37.383Z,4.17
2019-01-15T18:03:26.759Z,5.57
2019-01-15T18:06:11.160Z,5.97
2019-01-15T18:08:58.584Z,6.12
2019-01-15T18:11:49.024Z,8.25
2019-01-15T18:14:45.481Z,7.70
2019-01-15T18:17:39.089Z,6.93
2019-01-15T18:20:23.361Z,5.27
2019-01-15T18:23:09.730Z,7.53
2019-01-15T18:25:55.143Z,3.50
2019-01-15T18:28:37.592Z,7.27
2019-01-15T18:31:24.444Z,8.00
2019-01-15T18:34:11.922Z,4.30
2019-01-15T18:37:05.541Z,5.23
2019-01-15T18:39:51.914Z,3.73
2019-01-15T18:42:54.477Z,4.73
2019-01-15T18:45:33.447Z,4.87
2019-01-15T18:48:26.808Z,6.40
2019-01-15T18:51:32.389Z,6.20
2019-01-15T18:54:18.795Z,4.67
2019-01-15T18:57:21.475Z,7.92
2019-01-15T19:00:23.917Z,7.08
2019-01-15T19:03:19.890Z,7.03
2019-01-15T19:06:19.577Z,5.35
2019-01-15T19:09:15.964Z,5.97
2019-01-15T19:12:06.432Z,8.23
2019-01-15T19:14:52.504Z,4.90
2019-01-15T19:17:36.834Z,5.37
2019-01-15T19:20:27.949Z,4.73
2019-01-15T19:23:08.158Z,6.00
2019-01-15T19:26:01.060Z,5.62
2019-01-15T19:28:53.042Z,4.75
2019-01-15T19:31:54.674Z,5.22
2019-01-15T19:34:53.995Z,5.70
2019-01-15T19:37:44.823Z,4.57
2019-01-15T19:40:37.895Z,4.12
2019-01-15T19:43:25.377Z,6.10
2019-01-15T19:46:10.360Z,4.07
2019-01-15T19:49:01.129Z,3.00
2019-01-15T19:51:44.750Z,2.83
2019-01-15T19:54:40.431Z,4.40
2019-01-15T19:57:26.796Z,3.10
2019-01-15T20:00:14.622Z,3.23
2019-01-15T20:03:01.014Z,3.13
2019-01-15T20:05:48.569Z,1.82
2019-01-15T20:08:42.735Z,2.20
2019-01-15T20:11:44.733Z,3.60
2019-01-15T20:14:30.887Z,2.33
2019-01-15T20:17:17.992Z,1.77
2019-01-15T20:19:58.417Z,2.57
2019-01-15T20:22:44.721Z,1.77
2019-01-15T20:25:52.474Z,2.25
2019-01-15T20:28:38.730Z,2.10
2019-01-15T20:31:28.752Z,1.90
2019-01-15T20:34:22.362Z,3.13
2019-01-15T20:36:59.826Z,1.63
2019-01-15T20:39:39.703Z,1.52
2019-01-15T20:42:27.184Z,1.95
2019-01-15T20:45:09.548Z,1.72
2019-01-15T20:47:50.288Z,0.93
2019-01-15T20:50:36.979Z,1.93
2019-01-15T20:53:39.755Z,1.77
2019-01-15T20:56:38.198Z,1.00
2019-01-15T20:59:24.243Z,1.20
2019-01-15T21:02:05.917Z,2.03
2019-01-15T21:04:46.493Z,1.20
2019-01-15T21:07:32.994Z,1.42
2019-01-15T21:10:22.382Z,1.25
2019-01-15T21:13:09.621Z,2.52
2019-01-15T21:15:44.946Z,1.40
2019-01-15T21:18:28.607Z,3.40
2019-01-15T21:21:14.949Z,2.62
2019-01-15T21:24:11.252Z,1.73
2019-01-15T21:27:07.370Z,1.60
2019-01-15T21:30:04.097Z,2.67
2019-01-15T21:32:51.504Z,2.40
2019-01-15T21:35:38.970Z,1.65
2019-01-15T21:38:17.691Z,2.60
2019-01-15T21:40:58.653Z,3.70
2019-01-15T21:43:44.914Z,5.37
2019-01-15T21:46:50.609Z,5.20
2019-01-15T21:49:32.767Z,10.70
2019-01-15T21:52:38.305Z,9.83
2019-01-15T21:55:31.413Z,10.93
2019-01-15T21:58:30.966Z,11.25
2019-01-15T22:01:27.630Z,13.80
2019-01-15T22:04:27.057Z,12.95
2019-01-15T22:07:15.647Z,11.28
2019-01-15T22:10:12.473Z,9.17
2019-01-15T22:12:58.086Z,15.10
2019-01-15T22:15:53.427Z,11.15
2019-01-15T22:18:41.817Z,10.95
2019-01-15T22:21:38.625Z,14.13
2019-01-15T22:24:25.013Z,13.65
2019-01-15T22:27:18.461Z,11.55
2019-01-15T22:30:05.023Z,10.88
2019-01-15T22:32:56.622Z,12.28
2019-01-15T22:35:43.998Z,11.67
2019-01-15T22:38:27.509Z,14.30
2019-01-15T22:41:12.529Z,15.23
2019-01-15T22:44:02.989Z,15.72
2019-01-15T22:46:40.915Z,10.65
2019-01-15T22:49:21.951Z,12.37
2019-01-15T22:52:09.388Z,10.63
2019-01-15T22:55:04.821Z,13.10
2019-01-15T22:57:44.676Z,12.85
2019-01-15T23:00:50.218Z,9.53
2019-01-15T23:03:28.772Z,8.60
2019-01-15T23:06:19.051Z,13.58
2019-01-15T23:09:01.665Z,12.33
2019-01-15T23:11:48.798Z,12.88
2019-01-15T23:14:34.747Z,8.28
2019-01-15T23:17:18.645Z,10.35
2019-01-15T23:20:04.805Z,11.90
2019-01-15T23:22:48.454Z,9.53
2019-01-15T23:25:30.528Z,13.83
2019-01-15T23:28:16.822Z,11.38
2019-01-15T23:31:06.279Z,10.65
2019-01-15T23:33:52.569Z,9.38
2019-01-15T23:36:38.671Z,13.55
2019-01-15T23:39:23.768Z,12.78
2019-01-15T23:42:11.285Z,11.38
2019-01-15T23:44:50.764Z,11.65
2019-01-15T23:47:37.057Z,7.08
2019-01-15T23:50:28.359Z,10.45
2019-01-15T23:53:15.774Z,14.58
2019-01-15T23:56:02.342Z,11.88
2019-01-15T23:58:48.521Z,6.40
